Time;durP1;ratioP1;P1;durP2;ratioP2;P2;SDS_P1;SDS_P2;PMS_P1;PMS_P2;Temp;Humidity;BMP_temperature;BMP_pressure;BME280_temperature;BME280_humidity;BME280_pressure;Samples;Min_cycle;Max_cycle;Signal;HPM_P1;HPM_P2
2022/06/30 00:00:33;;;;;;;22.77;3.40;;;;;;;26.51;52.22;99131.84;7316531;19;129131;-34
2022/06/30 00:02:58;;;;;;;22.83;3.67;;;;;;;26.56;51.48;99124.22;7312468;19;129897;-33
2022/06/30 00:05:23;;;;;;;22.73;3.30;;;;;;;26.69;51.24;99129.69;7310594;19;130183;-35
2022/06/30 00:07:49;;;;;;;15.93;2.67;;;;;;;26.63;51.57;99107.47;7314117;19;129483;-40
2022/06/30 00:10:14;;;;;;;20.67;3.33;;;;;;;26.74;52.01;99114.91;7306013;19;129279;-38
2022/06/30 00:12:40;;;;;;;57.40;7.10;;;;;;;26.77;51.82;99116.38;7302282;19;131023;-34
2022/06/30 00:15:07;;;;;;;84.83;9.33;;;;;;;26.78;52.23;99116.19;7295058;19;131289;-40
2022/06/30 00:17:32;;;;;;;58.53;7.25;;;;;;;26.76;52.14;99117.38;7296952;19;130364;-35
2022/06/30 00:19:57;;;;;;;24.00;3.73;;;;;;;26.76;52.03;99118.19;7311596;19;129280;-39
2022/06/30 00:22:23;;;;;;;21.13;3.43;;;;;;;26.79;52.21;99115.19;7312313;19;128846;-36
2022/06/30 00:24:48;;;;;;;63.80;7.83;;;;;;;26.39;48.92;99120.13;7301985;19;130313;-43
2022/06/30 00:27:14;;;;;;;15.07;2.87;;;;;;;26.19;48.25;99119.84;7307535;19;129730;-39
2022/06/30 00:29:39;;;;;;;22.57;3.37;;;;;;;26.13;48.60;99119.75;7314399;19;129801;-39
2022/06/30 00:32:05;;;;;;;28.97;3.93;;;;;;;26.10;48.69;99115.63;7312274;19;129548;-38
2022/06/30 00:34:31;;;;;;;33.93;4.43;;;;;;;26.15;49.15;99113.28;7312965;19;130633;-32
2022/06/30 00:36:56;;;;;;;36.40;4.73;;;;;;;26.37;51.52;99116.84;7313375;19;129166;-41
2022/06/30 00:39:22;;;;;;;32.37;4.23;;;;;;;26.53;52.07;99127.19;7313473;19;129723;-39
2022/06/30 00:41:47;;;;;;;11.63;2.43;;;;;;;26.64;50.70;99130.19;7314300;19;129261;-42
2022/06/30 00:44:13;;;;;;;51.73;6.20;;;;;;;26.70;52.03;99129.50;7309612;19;129070;-45
2022/06/30 00:46:39;;;;;;;12.00;2.37;;;;;;;26.64;50.87;99119.63;7309834;19;129410;-34
2022/06/30 00:49:06;;;;;;;11.60;2.67;;;;;;;26.75;52.37;99127.13;7313423;19;128963;-34
2022/06/30 00:51:31;;;;;;;29.10;3.90;;;;;;;26.76;51.50;99126.13;7312910;19;128870;-38
2022/06/30 00:54:00;;;;;;;23.27;3.33;;;;;;;26.75;52.19;99116.56;7312205;19;129115;-39
2022/06/30 00:56:27;;;;;;;21.58;3.15;;;;;;;26.77;52.06;99126.94;7312665;19;129862;-31
2022/06/30 00:58:55;;;;;;;28.95;3.63;;;;;;;26.77;52.07;99119.03;7306740;19;130615;-32
2022/06/30 01:01:23;;;;;;;21.63;3.40;;;;;;;26.76;52.45;99118.19;7314096;19;128993;-37
2022/06/30 01:03:50;;;;;;;45.90;6.13;;;;;;;26.75;52.23;99111.31;7300091;19;130138;-39
2022/06/30 01:06:17;;;;;;;55.33;6.43;;;;;;;26.21;48.86;99112.56;7293478;19;130918;-35
2022/06/30 01:08:43;;;;;;;61.72;6.95;;;;;;;26.10;48.65;99115.63;7296093;19;132141;-39
2022/06/30 01:13:53;;;;;;;68.65;7.60;;;;;;;26.09;47.79;99114.00;7295583;19;130650;-41
2022/06/30 01:16:21;;;;;;;13.90;2.50;;;;;;;26.27;51.49;99106.56;7307008;19;131822;-34
2022/06/30 01:18:47;;;;;;;22.23;3.40;;;;;;;26.46;51.80;99110.50;7313516;19;130050;-36
2022/06/30 01:21:12;;;;;;;18.03;2.63;;;;;;;26.57;50.96;99107.38;7312125;19;129449;-36
2022/06/30 01:23:37;;;;;;;35.60;4.70;;;;;;;26.66;51.92;99111.56;7312974;19;130397;-32
2022/06/30 01:26:03;;;;;;;19.10;2.70;;;;;;;26.69;51.52;99101.47;7308890;19;130156;-34
2022/06/30 01:28:29;;;;;;;24.20;3.43;;;;;;;26.73;51.83;99097.47;7313022;19;128962;-40
2022/06/30 01:30:55;;;;;;;20.60;3.23;;;;;;;26.74;51.13;99087.75;7312537;19;130011;-38
2022/06/30 01:33:20;;;;;;;15.30;2.43;;;;;;;26.73;52.24;99092.19;7312180;19;130789;-35
2022/06/30 01:35:46;;;;;;;20.57;2.97;;;;;;;26.75;51.86;99095.47;7311672;19;129249;-38
2022/06/30 01:38:11;;;;;;;8.10;2.10;;;;;;;26.77;52.07;99087.38;7311193;19;130618;-38
2022/06/30 01:40:36;;;;;;;24.20;3.43;;;;;;;26.77;52.46;99088.19;7311800;19;129673;-34
2022/06/30 01:43:05;;;;;;;33.97;4.37;;;;;;;26.77;53.33;99093.47;7311781;19;129002;-39
2022/06/30 01:45:31;;;;;;;28.02;3.95;;;;;;;26.29;48.41;99096.66;7306957;19;130016;-38
2022/06/30 01:47:56;;;;;;;21.27;3.00;;;;;;;26.10;48.71;99099.81;7309148;19;129135;-39
2022/06/30 01:50:25;;;;;;;19.53;2.70;;;;;;;26.09;48.04;99097.38;7312115;19;130230;-40
2022/06/30 01:52:50;;;;;;;21.40;2.95;;;;;;;26.05;48.25;99083.75;7310619;19;129989;-39
2022/06/30 01:55:16;;;;;;;14.70;2.17;;;;;;;26.23;50.06;99093.94;7312039;19;130513;-36
2022/06/30 01:57:41;;;;;;;18.77;2.70;;;;;;;26.43;51.60;99090.56;7309277;19;128979;-35
2022/06/30 02:00:10;;;;;;;12.67;2.10;;;;;;;26.55;51.71;99097.00;7311738;19;129026;-36
2022/06/30 02:02:36;;;;;;;25.83;3.63;;;;;;;26.64;51.85;99085.34;7311424;19;130554;-33
2022/06/30 02:05:02;;;;;;;20.70;3.07;;;;;;;26.69;52.02;99088.28;7310474;19;129652;-36
2022/06/30 02:07:28;;;;;;;25.40;3.50;;;;;;;26.72;51.11;99093.22;7309434;19;129381;-30
2022/06/30 02:09:53;;;;;;;22.07;3.13;;;;;;;26.67;51.67;99084.22;7311091;19;129941;-36
2022/06/30 02:15:05;;;;;;;8.50;1.92;;;;;;;26.75;51.99;99082.28;7310723;19;128991;-33
2022/06/30 02:17:31;;;;;;;;;;;;;;;26.85;53.80;99090.72;7305907;19;128819;-34
2022/06/30 02:19:56;;;;;;;20.97;3.03;;;;;;;26.78;51.88;99083.72;7311275;19;129860;-33
2022/06/30 02:22:22;;;;;;;24.57;3.50;;;;;;;26.35;48.31;99084.56;7312018;19;130086;-36
2022/06/30 02:24:47;;;;;;;42.93;5.13;;;;;;;26.11;49.07;99079.56;7308678;19;129355;-35
2022/06/30 02:27:13;;;;;;;4.73;1.60;;;;;;;26.08;48.57;99080.75;7314329;19;129852;-34
2022/06/30 02:29:38;;;;;;;21.23;3.03;;;;;;;26.07;47.96;99073.84;7318502;19;129463;-38
2022/06/30 02:32:04;;;;;;;18.87;2.57;;;;;;;26.08;49.18;99064.13;7318151;19;129441;-38
2022/06/30 02:34:30;;;;;;;41.38;5.28;;;;;;;26.34;51.45;99075.84;7316798;19;129811;-37
2022/06/30 02:36:56;;;;;;;22.00;3.03;;;;;;;26.47;51.26;99078.66;7316431;19;129759;-40
2022/06/30 02:39:21;;;;;;;50.20;6.40;;;;;;;26.59;51.78;99073.75;7312362;19;131237;-40
2022/06/30 02:41:47;;;;;;;16.27;2.43;;;;;;;26.65;51.27;99068.56;7316794;19;131617;-37
2022/06/30 02:44:13;;;;;;;30.37;4.07;;;;;;;26.71;51.82;99072.28;7316439;19;130295;-41
2022/06/30 02:46:38;;;;;;;11.83;2.33;;;;;;;26.71;51.01;99073.09;7313737;19;130380;-37
2022/06/30 02:49:04;;;;;;;20.93;3.40;;;;;;;26.69;52.52;99069.81;7317202;19;129256;-38
2022/06/30 02:51:29;;;;;;;24.03;3.20;;;;;;;26.74;52.62;99077.19;7315668;19;129303;-39
2022/06/30 02:53:55;;;;;;;14.63;2.43;;;;;;;26.74;51.94;99078.00;7318148;19;130326;-32
2022/06/30 02:56:21;;;;;;;24.10;3.00;;;;;;;26.75;51.95;99079.66;7315327;19;129466;-35
2022/06/30 02:58:47;;;;;;;46.20;5.73;;;;;;;26.76;52.63;99078.63;7313899;19;130572;-35
2022/06/30 03:01:13;;;;;;;16.92;2.30;;;;;;;26.76;52.88;99081.28;7316601;19;131211;-33
2022/06/30 03:03:39;;;;;;;41.33;5.03;;;;;;;26.19;49.43;99079.47;7315079;19;129352;-41
2022/06/30 03:06:04;;;;;;;63.53;7.17;;;;;;;26.06;48.19;99082.75;7298233;19;130608;-46
2022/06/30 03:08:30;;;;;;;45.70;5.40;;;;;;;26.04;47.68;99092.66;7299657;19;130502;-36
2022/06/30 03:10:55;;;;;;;57.33;6.33;;;;;;;26.09;48.23;99092.94;7300528;19;131030;-37
2022/06/30 03:13:20;;;;;;;46.40;5.53;;;;;;;26.15;51.17;99086.09;7299449;19;131934;-36
2022/06/30 03:15:47;;;;;;;63.60;6.73;;;;;;;26.43;51.73;99105.56;7296786;19;130128;-32
2022/06/30 03:18:12;;;;;;;8.30;1.88;;;;;;;26.53;51.18;99101.66;7311596;19;130165;-34
2022/06/30 03:20:38;;;;;;;19.83;2.53;;;;;;;26.62;51.34;99097.94;7315571;19;130228;-38
2022/06/30 03:23:03;;;;;;;31.27;4.13;;;;;;;26.67;51.58;99103.50;7313725;19;130963;-35
2022/06/30 03:25:28;;;;;;;23.20;3.03;;;;;;;26.70;51.52;99097.84;7315961;19;129282;-32
2022/06/30 03:27:54;;;;;;;61.03;6.97;;;;;;;26.70;51.41;99099.66;7307100;19;131658;-35
2022/06/30 03:30:19;;;;;;;15.13;1.97;;;;;;;26.72;53.03;99095.84;7315386;19;129370;-42
2022/06/30 03:32:45;;;;;;;19.30;2.97;;;;;;;26.73;52.58;99096.66;7315459;19;131305;-36
2022/06/30 03:35:10;;;;;;;17.80;2.40;;;;;;;26.73;52.22;99096.66;7314202;19;128868;-34
2022/06/30 03:37:35;;;;;;;44.33;5.33;;;;;;;26.75;52.63;99097.28;7311304;19;130449;-41
2022/06/30 03:40:01;;;;;;;12.37;2.70;;;;;;;26.75;52.21;99105.19;7310302;19;130153;-32
2022/06/30 03:42:26;;;;;;;19.83;2.80;;;;;;;26.16;48.06;99112.31;7316852;19;129362;-34
2022/06/30 03:44:52;;;;;;;40.10;4.87;;;;;;;26.08;48.13;99109.72;7312613;19;131589;-39
2022/06/30 03:47:17;;;;;;;15.97;2.23;;;;;;;26.04;48.58;99108.47;7314859;19;128981;-34
2022/06/30 03:49:43;;;;;;;32.27;3.57;;;;;;;26.06;48.20;99113.56;7315599;19;130054;-34
2022/06/30 03:52:08;;;;;;;25.33;3.33;;;;;;;26.20;50.44;99120.63;7313542;19;129746;-37
2022/06/30 03:54:34;;;;;;;47.13;5.47;;;;;;;26.39;52.17;99126.22;7308940;19;130651;-38
2022/06/30 03:56:59;;;;;;;30.83;3.67;;;;;;;26.53;51.44;99128.00;7305072;19;130389;-33
2022/06/30 03:59:25;;;;;;;12.23;2.10;;;;;;;26.62;51.36;99132.19;7307744;19;130856;-35
2022/06/30 04:01:50;;;;;;;48.03;5.27;;;;;;;26.66;50.84;99128.22;7307479;19;131165;-34
2022/06/30 04:04:15;;;;;;;25.60;3.17;;;;;;;26.67;51.58;99127.22;7310677;19;130645;-36
2022/06/30 04:06:41;;;;;;;41.67;5.17;;;;;;;26.72;52.12;99130.13;7308772;19;129227;-37
2022/06/30 04:09:06;;;;;;;21.00;2.63;;;;;;;26.69;52.12;99132.31;7310364;19;131353;-33
2022/06/30 04:11:32;;;;;;;22.20;2.87;;;;;;;26.63;52.61;99122.44;7315482;19;130438;-34
2022/06/30 04:13:57;;;;;;;30.20;3.57;;;;;;;26.70;52.63;99139.22;7313758;19;129341;-38
2022/06/30 04:16:23;;;;;;;17.93;2.40;;;;;;;26.72;52.63;99129.31;7313179;19;129105;-36
2022/06/30 04:18:48;;;;;;;21.60;2.60;;;;;;;26.52;49.87;99120.28;7312808;19;130009;-36
2022/06/30 04:21:16;;;;;;;20.00;2.80;;;;;;;26.12;48.46;99124.19;7315070;19;130158;-38
2022/06/30 04:23:42;;;;;;;16.52;2.50;;;;;;;26.01;48.28;99116.72;7312198;19;131451;-36
2022/06/30 04:26:08;;;;;;;21.13;2.70;;;;;;;26.01;48.28;99116.72;7309478;19;129264;-35
2022/06/30 04:28:33;;;;;;;52.87;5.80;;;;;;;25.94;48.41;99105.22;7310500;19;129739;-40
2022/06/30 04:33:42;;;;;;;47.50;5.05;;;;;;;26.32;52.22;99112.13;7312748;19;130237;-33
2022/06/30 04:36:08;;;;;;;42.07;4.43;;;;;;;26.46;52.43;99116.56;7311924;19;128934;-39
2022/06/30 04:38:33;;;;;;;29.00;3.60;;;;;;;26.53;52.24;99117.47;7312443;19;129377;-33
2022/06/30 04:43:42;;;;;;;33.88;4.15;;;;;;;26.65;52.64;99107.28;7311520;19;129662;-37
2022/06/30 04:46:08;;;;;;;21.40;3.17;;;;;;;26.65;52.51;99099.34;7309690;19;128998;-37
2022/06/30 04:48:33;;;;;;;35.63;4.63;;;;;;;26.65;52.82;99094.09;7308732;19;129368;-36
2022/06/30 04:50:59;;;;;;;25.23;3.63;;;;;;;26.66;52.06;99099.22;7312576;19;129639;-32
2022/06/30 04:53:24;;;;;;;58.57;6.77;;;;;;;26.68;53.29;99091.94;7310799;19;129183;-36
2022/06/30 04:55:49;;;;;;;35.97;4.33;;;;;;;26.71;52.45;99086.28;7309642;19;129460;-42
2022/06/30 04:58:15;;;;;;;44.53;5.47;;;;;;;26.73;53.33;99086.09;7306482;19;130060;-35
2022/06/30 05:00:40;;;;;;;24.10;4.07;;;;;;;26.71;52.26;99088.91;7306317;19;129967;-41
2022/06/30 05:03:05;;;;;;;30.90;4.60;;;;;;;26.74;53.36;99095.66;7313559;19;129163;-35
2022/06/30 05:05:31;;;;;;;24.37;3.97;;;;;;;26.72;52.65;99095.84;7309195;19;129606;-33
2022/06/30 05:07:56;;;;;;;36.80;4.50;;;;;;;26.71;52.88;99099.47;7308065;19;130662;-39
2022/06/30 05:10:22;;;;;;;34.33;4.13;;;;;;;26.71;52.65;99104.75;7311113;19;130246;-45
2022/06/30 05:12:47;;;;;;;19.93;3.10;;;;;;;26.72;53.30;99106.41;7312858;19;129104;-35
2022/06/30 05:15:13;;;;;;;16.73;3.10;;;;;;;26.72;53.04;99111.69;7311120;19;129566;-37
2022/06/30 05:17:38;;;;;;;44.20;5.23;;;;;;;26.72;52.82;99106.41;7308946;19;130450;-36
2022/06/30 05:20:04;;;;;;;21.27;3.33;;;;;;;26.73;52.72;99112.47;7310847;19;130028;-34
2022/06/30 05:22:30;;;;;;;38.10;4.78;;;;;;;26.74;52.03;99114.91;7312350;19;129183;-41
2022/06/30 05:27:39;;;;;;;20.73;3.33;;;;;;;26.75;52.86;99116.56;7311821;19;128964;-39
2022/06/30 05:30:05;;;;;;;32.07;4.43;;;;;;;26.72;53.00;99122.22;7310198;19;130230;-33
2022/06/30 05:32:31;;;;;;;24.67;3.42;;;;;;;26.72;53.11;99122.22;7311884;19;129985;-36
2022/06/30 05:34:56;;;;;;;36.77;5.00;;;;;;;26.73;52.96;99129.13;7311082;19;129704;-32
2022/06/30 05:37:22;;;;;;;21.07;3.23;;;;;;;26.72;53.52;99119.59;7311050;19;130004;-37
2022/06/30 05:39:47;;;;;;;15.90;3.03;;;;;;;26.64;53.26;99109.06;7312966;19;129255;-34
2022/06/30 05:42:12;;;;;;;15.07;2.77;;;;;;;26.74;53.01;99124.69;7311502;19;128971;-33
2022/06/30 05:44:38;;;;;;;27.07;3.73;;;;;;;26.73;53.64;99126.47;7312436;19;129102;-38
2022/06/30 05:47:03;;;;;;;21.07;3.73;;;;;;;26.74;53.18;99124.69;7309523;19;129176;-31
2022/06/30 05:49:29;;;;;;;24.40;3.60;;;;;;;26.73;53.31;99123.03;7311409;19;130374;-36
2022/06/30 05:51:54;;;;;;;20.03;3.20;;;;;;;26.75;53.82;99126.28;7312297;19;129066;-39
2022/06/30 05:54:20;;;;;;;18.20;2.97;;;;;;;26.72;53.49;99130.13;7311240;19;129432;-37
2022/06/30 05:56:45;;;;;;;15.63;2.97;;;;;;;26.72;53.05;99127.50;7312483;19;130134;-32
2022/06/30 05:59:11;;;;;;;24.40;3.87;;;;;;;26.73;53.36;99130.94;7310964;19;129284;-36
2022/06/30 06:01:36;;;;;;;23.50;3.63;;;;;;;26.73;53.22;99129.13;7311443;19;128828;-39
2022/06/30 06:04:03;;;;;;;32.37;4.93;;;;;;;26.70;53.72;99137.41;7312151;19;129168;-34
2022/06/30 06:06:28;;;;;;;18.90;3.42;;;;;;;26.64;53.45;99124.91;7310383;19;129603;-36
2022/06/30 06:08:53;;;;;;;27.87;4.13;;;;;;;26.70;53.66;99129.50;7311850;19;130437;-35
2022/06/30 06:11:19;;;;;;;26.30;3.87;;;;;;;26.71;54.06;99131.13;7311441;19;129579;-41
2022/06/30 06:13:44;;;;;;;17.87;2.97;;;;;;;26.69;53.22;99133.13;7312149;19;129172;-36
2022/06/30 06:16:10;;;;;;;12.57;2.50;;;;;;;26.69;53.42;99138.38;7309309;19;129616;-35
2022/06/30 06:18:35;;;;;;;34.07;4.70;;;;;;;26.60;54.11;99123.66;7311738;19;130208;-36
2022/06/30 06:21:00;;;;;;;21.13;3.83;;;;;;;26.69;53.22;99127.84;7312895;19;131827;-33
2022/06/30 06:23:26;;;;;;;20.67;3.57;;;;;;;26.67;54.39;99132.50;7310259;19;129393;-36
2022/06/30 06:25:51;;;;;;;18.73;3.43;;;;;;;26.66;53.78;99133.50;7309037;19;129937;-37
2022/06/30 06:31:01;;;;;;;26.67;3.95;;;;;;;26.62;54.07;99126.09;7311616;19;128978;-40
2022/06/30 06:33:27;;;;;;;23.10;3.90;;;;;;;26.63;54.11;99131.19;7312229;19;129157;-37
2022/06/30 06:35:52;;;;;;;18.97;3.43;;;;;;;26.62;54.19;99129.56;7310348;19;129181;-32
2022/06/30 06:38:18;;;;;;;16.00;3.20;;;;;;;26.61;54.25;99132.38;7307418;19;129229;-41
2022/06/30 06:40:44;;;;;;;16.90;3.13;;;;;;;26.61;53.63;99130.56;7311789;19;129641;-32
2022/06/30 06:43:09;;;;;;;29.07;4.07;;;;;;;26.59;54.47;99131.75;7310613;19;128957;-38
2022/06/30 06:45:34;;;;;;;22.57;3.47;;;;;;;26.59;53.67;99132.53;7307895;19;130222;-32
2022/06/30 06:48:00;;;;;;;22.33;3.90;;;;;;;26.57;54.13;99131.94;7308088;19;129254;-41
2022/06/30 06:50:25;;;;;;;21.57;3.80;;;;;;;26.58;54.49;99125.66;7310914;19;128995;-36
2022/06/30 06:52:50;;;;;;;19.07;3.30;;;;;;;26.47;53.94;99107.66;7311429;19;129268;-35
2022/06/30 06:55:17;;;;;;;17.60;3.33;;;;;;;26.56;55.02;99117.09;7309213;19;129282;-40
2022/06/30 06:57:43;;;;;;;7.78;2.55;;;;;;;26.54;54.22;99115.66;7308699;19;131035;-35
2022/06/30 07:00:12;;;;;;;16.83;3.10;;;;;;;26.54;54.37;99120.94;7310181;19;129156;-37
2022/06/30 07:02:38;;;;;;;24.92;4.15;;;;;;;26.51;53.94;99114.19;7311205;19;129463;-35
2022/06/30 07:05:04;;;;;;;21.83;3.63;;;;;;;26.49;54.73;99110.94;7309023;19;130156;-34
2022/06/30 07:07:29;;;;;;;27.50;3.93;;;;;;;26.52;53.93;99115.84;7307840;19;129244;-35
2022/06/30 07:09:55;;;;;;;36.60;4.77;;;;;;;26.52;54.31;99121.13;7309389;19;129087;-36
2022/06/30 07:12:20;;;;;;;16.37;3.40;;;;;;;26.51;54.18;99130.00;7311804;19;129152;-37
2022/06/30 07:14:45;;;;;;;28.90;4.47;;;;;;;26.48;55.09;99130.38;7314854;19;129645;-35
2022/06/30 07:17:11;;;;;;;11.87;2.77;;;;;;;26.41;55.17;99116.28;7314951;19;129205;-38
2022/06/30 07:19:36;;;;;;;23.33;3.93;;;;;;;26.47;54.41;99123.47;7317698;19;128957;-32
2022/06/30 07:22:01;;;;;;;19.77;3.83;;;;;;;26.46;54.72;99126.31;7318599;19;129988;-38
2022/06/30 07:24:27;;;;;;;28.93;4.53;;;;;;;26.47;53.94;99128.75;7316686;19;130190;-39
2022/06/30 07:26:52;;;;;;;24.13;3.90;;;;;;;26.50;54.14;99133.66;7314080;19;130217;-35
2022/06/30 07:29:18;;;;;;;16.93;3.23;;;;;;;26.49;54.25;99136.47;7317253;19;128853;-36
2022/06/30 07:31:43;;;;;;;16.70;2.93;;;;;;;26.47;54.36;99136.66;7317159;19;128812;-36
2022/06/30 07:34:09;;;;;;;17.97;3.47;;;;;;;26.45;54.72;99130.75;7316178;19;129733;-36
2022/06/30 07:36:35;;;;;;;23.83;3.87;;;;;;;26.47;54.48;99139.31;7315402;19;129600;-34
2022/06/30 07:39:01;;;;;;;16.15;3.30;;;;;;;26.44;54.60;99137.03;7315658;19;129410;-34
2022/06/30 07:41:28;;;;;;;26.92;4.30;;;;;;;26.43;54.43;99142.47;7316627;19;130695;-34
2022/06/30 07:43:53;;;;;;;29.33;4.25;;;;;;;26.43;54.54;99143.28;7315897;19;130824;-37
2022/06/30 07:46:19;;;;;;;18.50;3.50;;;;;;;26.43;55.43;99153.84;7314931;19;129106;-34
2022/06/30 07:48:46;;;;;;;18.53;3.30;;;;;;;26.41;54.77;99144.47;7316494;19;128974;-37
2022/06/30 07:51:11;;;;;;;16.83;3.33;;;;;;;26.41;54.80;99150.56;7315543;19;129628;-34
2022/06/30 07:53:37;;;;;;;22.70;4.00;;;;;;;26.41;54.95;99149.75;7316111;19;130409;-35
2022/06/30 07:56:02;;;;;;;19.23;3.70;;;;;;;26.41;54.96;99153.19;7314297;19;129103;-38
2022/06/30 07:58:27;;;;;;;23.53;3.87;;;;;;;26.42;54.81;99156.66;7313829;19;131569;-35
2022/06/30 08:00:53;;;;;;;20.00;3.57;;;;;;;26.40;55.05;99158.66;7315696;19;129290;-35
2022/06/30 08:03:18;;;;;;;17.23;3.10;;;;;;;26.29;55.62;99146.75;7317129;19;130291;-34
2022/06/30 08:05:44;;;;;;;18.93;3.30;;;;;;;26.39;54.64;99162.28;7314302;19;130584;-32
2022/06/30 08:08:09;;;;;;;16.30;3.20;;;;;;;26.31;55.32;99139.44;7313407;19;131328;-35
2022/06/30 08:10:35;;;;;;;25.43;4.17;;;;;;;26.37;55.33;99153.75;7315227;19;128867;-35
2022/06/30 08:13:00;;;;;;;26.27;4.10;;;;;;;26.29;54.41;99138.00;7315441;19;129496;-38
2022/06/30 08:15:26;;;;;;;16.27;3.47;;;;;;;26.37;55.31;99148.47;7313765;19;129268;-34
2022/06/30 08:17:52;;;;;;;20.17;3.40;;;;;;;26.36;54.87;99152.91;7313933;19;128766;-37
2022/06/30 08:20:18;;;;;;;15.90;2.90;;;;;;;26.36;55.69;99147.63;7315667;19;128863;-35
2022/06/30 08:22:43;;;;;;;36.10;5.27;;;;;;;26.36;55.50;99142.38;7314404;19;129351;-35
2022/06/30 08:25:09;;;;;;;21.37;3.70;;;;;;;26.37;54.99;99144.03;7314219;19;130401;-39
2022/06/30 08:27:34;;;;;;;36.13;5.43;;;;;;;26.35;55.27;99142.56;7313513;19;129675;-34
2022/06/30 08:30:00;;;;;;;20.70;4.10;;;;;;;26.28;55.33;99131.13;7315494;19;129853;-35
2022/06/30 08:32:25;;;;;;;21.47;3.70;;;;;;;26.36;55.47;99147.63;7315658;19;129828;-36
2022/06/30 08:34:50;;;;;;;25.93;4.23;;;;;;;26.26;55.24;99136.53;7312954;19;129231;-35
2022/06/30 08:37:16;;;;;;;15.27;3.13;;;;;;;26.34;55.73;99143.56;7314599;19;129287;-37
2022/06/30 08:42:26;;;;;;;22.50;3.80;;;;;;;26.33;55.43;99142.72;7316457;19;130173;-37
2022/06/30 08:47:37;;;;;;;12.52;3.10;;;;;;;26.31;55.28;99139.44;7313949;19;129048;-37
2022/06/30 08:50:10;;;;;;;34.38;5.03;;;;;;;26.22;54.95;99122.09;7313243;19;128785;-33
2022/06/30 08:52:57;;;;;;;26.08;4.25;;;;;;;26.33;56.87;99134.81;7314990;19;130310;-35
2022/06/30 08:55:25;;;;;;;11.98;3.03;;;;;;;26.29;55.11;99136.22;7311621;19;131107;-34
2022/06/30 08:57:54;;;;;;;16.60;3.28;;;;;;;26.29;55.56;99132.75;7312797;19;129432;-36
2022/06/30 09:00:19;;;;;;;19.85;3.58;;;;;;;26.29;54.94;99136.22;7315112;19;128804;-43
2022/06/30 09:02:46;;;;;;;20.33;3.93;;;;;;;26.30;55.47;99132.56;7314479;19;129550;-35
2022/06/30 09:05:12;;;;;;;;;;;;;;;26.38;56.39;99135.09;7313350;19;131079;-34
2022/06/30 09:07:38;;;;;;;23.60;4.10;;;;;;;26.21;55.22;99120.47;7312481;19;129219;-35
2022/06/30 09:10:05;;;;;;;26.40;4.27;;;;;;;26.27;55.43;99132.94;7314577;19;128925;-32
2022/06/30 09:12:31;;;;;;;27.50;4.55;;;;;;;26.27;55.95;99132.94;7313510;19;129898;-37
2022/06/30 09:14:57;;;;;;;40.20;6.07;;;;;;;26.27;56.26;99132.94;7311531;19;129430;-38
2022/06/30 14:44:48;;;;;;;65.57;9.23;;;;;;;23.71;62.33;99022.94;7344490;19;129913;-41
2022/06/30 14:47:14;;;;;;;46.03;7.55;;;;;;;23.81;62.28;99020.13;7343760;19;129187;-41
2022/06/30 14:49:39;;;;;;;40.47;6.57;;;;;;;23.91;62.13;99020.78;7346038;19;130093;-40
2022/06/30 14:52:05;;;;;;;53.65;7.38;;;;;;;24.02;63.19;99018.63;7341019;19;129774;-41
2022/06/30 14:54:30;;;;;;;31.90;6.43;;;;;;;24.15;61.89;99008.41;7342477;19;129647;-41
2022/06/30 14:56:56;;;;;;;53.60;7.87;;;;;;;24.28;61.70;99002.59;7339571;19;130768;-39
2022/06/30 14:59:24;;;;;;;26.73;4.80;;;;;;;24.38;61.17;99009.28;7346209;19;129248;-42
2022/06/30 15:01:49;;;;;;;29.30;5.60;;;;;;;24.51;60.50;98995.56;7343617;19;128822;-39
2022/06/30 15:04:15;;;;;;;37.38;6.07;;;;;;;24.59;60.83;98990.31;7338665;19;130346;-41
2022/06/30 15:06:40;;;;;;;47.38;7.03;;;;;;;24.69;60.32;98987.47;7343775;19;130358;-40
2022/06/30 15:09:05;;;;;;;55.73;7.77;;;;;;;24.77;60.18;98983.00;7345281;19;130720;-39
2022/06/30 15:11:31;;;;;;;28.70;6.60;;;;;;;24.84;59.98;98978.63;7343716;19;129294;-41
2022/06/30 15:13:59;;;;;;;44.43;8.13;;;;;;;24.85;60.22;98974.22;7344211;19;129068;-39
2022/06/30 15:16:25;;;;;;;25.25;6.32;;;;;;;24.97;59.47;98993.84;7340554;19;131332;-41
2022/06/30 15:18:50;;;;;;;26.23;6.30;;;;;;;25.00;59.84;98988.25;7347166;19;130467;-39
2022/06/30 15:24:07;;;;;;;20.50;6.05;;;;;;;25.08;59.47;98986.38;7346064;19;128984;-41
2022/06/30 15:26:37;;;;;;;37.47;7.47;;;;;;;25.11;59.11;98993.06;7340416;19;130807;-39
2022/06/30 15:29:07;;;;;;;24.02;6.03;;;;;;;25.13;59.85;98989.28;7344955;19;130483;-38
2022/06/30 15:31:37;;;;;;;34.30;7.88;;;;;;;25.17;59.39;98984.50;7341102;19;128928;-39
2022/06/30 15:34:03;;;;;;;19.13;5.80;;;;;;;25.19;59.38;98974.59;7345425;19;129070;-38
2022/06/30 15:36:29;;;;;;;38.83;8.23;;;;;;;25.13;59.10;98956.88;7344851;19;130000;-38
2022/06/30 15:38:55;;;;;;;21.13;6.30;;;;;;;25.22;58.55;98961.09;7342933;19;129328;-39
2022/06/30 15:41:21;;;;;;;32.85;8.43;;;;;;;25.22;58.84;98976.88;7342269;19;129417;-39
2022/06/30 15:43:46;;;;;;;25.67;7.00;;;;;;;25.26;58.81;98968.44;7342933;19;129071;-38
2022/06/30 15:46:15;;;;;;;19.85;6.75;;;;;;;25.28;58.61;98965.63;7342397;19;130868;-39
2022/06/30 15:48:41;;;;;;;20.10;6.78;;;;;;;25.27;58.77;98959.53;7345115;19;129584;-38
2022/06/30 15:51:06;;;;;;;30.60;7.60;;;;;;;25.31;59.24;98962.66;7342206;19;129059;-38
2022/06/30 15:53:31;;;;;;;35.27;8.77;;;;;;;25.29;58.10;98957.56;7315548;19;129042;-40
2022/06/30 15:55:57;;;;;;;23.93;8.33;;;;;;;25.30;58.53;98959.19;7310118;19;129694;-37
2022/06/30 15:58:23;;;;;;;31.50;8.82;;;;;;;25.25;58.13;98950.22;7316211;19;129822;-41
2022/06/30 16:00:48;;;;;;;28.23;7.63;;;;;;;25.32;59.13;98961.66;7310355;19;129203;-41
2022/06/30 16:03:14;;;;;;;24.77;8.60;;;;;;;25.31;58.94;98954.75;7316370;19;128864;-41
2022/06/30 16:05:39;;;;;;;35.77;9.07;;;;;;;25.32;57.95;98961.66;7313938;19;129541;-38
2022/06/30 16:08:05;;;;;;;42.97;9.10;;;;;;;25.33;58.31;98953.59;7311390;19;129635;-39
2022/06/30 16:10:31;;;;;;;28.00;8.00;;;;;;;25.31;58.98;98957.38;7314606;19;129041;-38
2022/06/30 16:12:57;;;;;;;54.63;11.60;;;;;;;25.36;58.64;98955.06;7311573;19;129284;-38
2022/06/30 16:15:22;;;;;;;36.27;8.43;;;;;;;25.34;58.22;98955.22;7313251;19;130151;-37
2022/06/30 16:17:49;;;;;;;29.83;8.53;;;;;;;25.36;57.89;98952.44;7315155;19;130225;-40
2022/06/30 16:20:15;;;;;;;30.88;8.60;;;;;;;25.34;57.86;98943.84;7309877;19;129732;-40
2022/06/30 16:22:40;;;;;;;35.53;9.03;;;;;;;25.36;57.75;98941.91;7310032;19;129537;-38
2022/06/30 16:25:07;;;;;;;27.63;8.33;;;;;;;25.35;57.90;98935.03;7315087;19;129967;-39
2022/06/30 16:27:34;;;;;;;39.65;9.23;;;;;;;25.34;57.67;98943.84;7314530;19;130056;-40
2022/06/30 16:29:59;;;;;;;45.70;10.63;;;;;;;25.34;57.60;98928.06;7313362;19;129057;-39
2022/06/30 16:32:25;;;;;;;30.50;8.37;;;;;;;25.30;58.31;98921.56;7310163;19;129419;-39
2022/06/30 16:34:50;;;;;;;37.20;9.30;;;;;;;25.31;58.02;98926.63;7313549;19;129129;-38
2022/06/30 16:37:15;;;;;;;37.10;9.50;;;;;;;25.32;57.83;98923.00;7310333;19;129825;-43
2022/06/30 16:39:42;;;;;;;31.10;8.47;;;;;;;25.35;57.67;98921.84;7311221;19;129314;-38
2022/06/30 16:42:07;;;;;;;35.40;8.82;;;;;;;25.34;57.95;98917.53;7310142;19;129334;-38
2022/06/30 16:44:37;;;;;;;25.60;8.23;;;;;;;25.36;59.03;98920.84;7310661;19;130626;-39
2022/06/30 16:47:04;;;;;;;31.75;8.75;;;;;;;25.33;57.55;98922.00;7311666;19;129773;-40
2022/06/30 16:49:29;;;;;;;26.50;8.32;;;;;;;25.33;58.08;98921.19;7308680;19;129156;-41
2022/06/30 16:51:55;;;;;;;37.30;8.97;;;;;;;25.38;57.80;98918.88;7311033;19;130513;-38
2022/06/30 16:54:20;;;;;;;37.17;9.47;;;;;;;25.34;57.96;98917.53;7305679;19;130289;-38
2022/06/30 16:56:46;;;;;;;37.10;9.23;;;;;;;25.32;57.29;98919.56;7313178;19;129209;-41
2022/06/30 16:59:13;;;;;;;51.50;10.90;;;;;;;25.34;58.03;98920.19;7310390;19;129145;-37
2022/06/30 17:01:38;;;;;;;;;;;;;;;25.38;60.86;98918.88;7307255;19;130867;-39